createdAt,value
2023-03-26T00:01:23.626Z,36.81
2023-03-26T00:03:54.721Z,36.87
2023-03-26T00:06:23.804Z,36.68
2023-03-26T00:08:51.511Z,36.47
2023-03-26T00:11:20.890Z,36.66
2023-03-26T00:13:48.154Z,36.56
2023-03-26T00:16:17.684Z,36.61
2023-03-26T00:18:44.650Z,36.67
2023-03-26T00:21:15.152Z,36.44
2023-03-26T00:23:43.068Z,36.66
2023-03-26T00:26:11.158Z,36.85
2023-03-26T00:28:40.364Z,36.67
2023-03-26T00:31:12.947Z,36.47
2023-03-26T00:33:41.340Z,36.33
2023-03-26T00:36:14.749Z,36.56
2023-03-26T00:38:42.923Z,36.63
2023-03-26T00:41:19.579Z,36.40
2023-03-26T00:43:46.676Z,36.31
2023-03-26T00:46:13.735Z,36.36
2023-03-26T00:48:45.530Z,36.56
2023-03-26T00:51:17.917Z,36.54
2023-03-26T00:53:46.959Z,36.47
2023-03-26T00:56:14.345Z,36.41
2023-03-26T00:58:41.768Z,36.18
2023-03-26T01:01:15.462Z,36.49
2023-03-26T01:03:53.635Z,36.48
2023-03-26T01:06:35.912Z,36.39
2023-03-26T01:09:34.943Z,36.43
2023-03-26T01:12:06.601Z,36.33
2023-03-26T01:14:33.397Z,36.09
2023-03-26T01:17:02.434Z,36.39
2023-03-26T01:19:45.258Z,36.46
2023-03-26T01:22:24.438Z,36.17
2023-03-26T01:24:56.487Z,36.23
2023-03-26T01:27:29.543Z,36.40
2023-03-26T01:30:15.113Z,36.14
2023-03-26T01:33:14.255Z,36.32
2023-03-26T01:36:04.110Z,36.19
2023-03-26T01:39:02.159Z,36.07
2023-03-26T01:41:35.618Z,36.30
2023-03-26T01:44:27.273Z,36.35
2023-03-26T01:46:55.088Z,36.33
2023-03-26T01:49:21.781Z,36.41
2023-03-26T01:51:48.502Z,36.04
2023-03-26T01:54:21.133Z,36.20
2023-03-26T01:56:54.726Z,36.30
2023-03-26T01:59:41.278Z,36.12
2023-03-26T02:02:38.688Z,36.09
2023-03-26T02:05:22.662Z,36.28
2023-03-26T02:07:58.575Z,36.19
2023-03-26T02:10:30.300Z,36.27
2023-03-26T02:12:58.967Z,36.09
2023-03-26T02:15:25.930Z,36.31
2023-03-26T02:17:53.332Z,36.06
2023-03-26T02:20:20.901Z,36.24
2023-03-26T02:22:47.888Z,36.34
2023-03-26T02:25:21.116Z,35.88
2023-03-26T02:27:52.840Z,36.36
2023-03-26T02:30:29.475Z,36.21
2023-03-26T02:32:59.238Z,36.12
2023-03-26T02:35:30.737Z,36.20
2023-03-26T02:37:59.987Z,36.31
2023-03-26T02:40:26.704Z,36.23
2023-03-26T02:42:53.576Z,35.97
2023-03-26T02:45:20.273Z,36.34
2023-03-26T02:48:08.029Z,36.25
2023-03-26T02:50:57.503Z,36.34
2023-03-26T02:53:39.418Z,36.22
2023-03-26T02:56:29.596Z,36.07
2023-03-26T02:59:13.818Z,36.26
2023-03-26T03:01:43.726Z,35.95
2023-03-26T03:04:13.590Z,36.06
2023-03-26T03:06:40.958Z,35.97
2023-03-26T03:09:11.018Z,36.31
2023-03-26T03:11:39.583Z,36.23
2023-03-26T03:14:07.775Z,36.45
2023-03-26T03:16:35.325Z,36.50
2023-03-26T03:19:06.168Z,36.50
2023-03-26T03:21:37.703Z,36.95
2023-03-26T03:24:05.117Z,36.79
2023-03-26T03:26:37.711Z,36.97
2023-03-26T03:29:29.041Z,37.06
2023-03-26T03:32:00.060Z,36.76
2023-03-26T03:34:49.827Z,36.83
2023-03-26T03:37:17.682Z,37.04
2023-03-26T03:39:50.254Z,37.56
2023-03-26T03:42:20.263Z,37.56
2023-03-26T03:44:49.034Z,38.23
2023-03-26T03:47:35.914Z,38.64
2023-03-26T03:50:03.406Z,38.92
2023-03-26T03:52:30.631Z,38.76
2023-03-26T03:54:57.776Z,38.76
2023-03-26T03:57:45.641Z,38.61
2023-03-26T04:00:18.146Z,38.58
2023-03-26T04:02:56.192Z,38.42
2023-03-26T04:05:26.520Z,38.00
2023-03-26T04:07:53.070Z,38.08
2023-03-26T04:10:28.502Z,38.15
2023-03-26T04:13:04.094Z,37.71
2023-03-26T04:15:57.228Z,38.11
2023-03-26T04:18:26.231Z,38.01
2023-03-26T04:20:55.505Z,37.94
2023-03-26T04:23:26.684Z,37.49
2023-03-26T04:26:10.386Z,37.77
2023-03-26T04:29:03.447Z,37.77
2023-03-26T04:31:32.009Z,37.37
2023-03-26T04:34:13.637Z,37.26
2023-03-26T04:36:55.175Z,37.41
2023-03-26T04:39:30.024Z,37.29
2023-03-26T04:42:19.920Z,37.56
2023-03-26T04:45:15.305Z,37.23
2023-03-26T04:47:46.474Z,37.45
2023-03-26T04:50:13.485Z,37.27
2023-03-26T04:52:43.276Z,37.15
2023-03-26T04:55:58.050Z,37.19
2023-03-26T04:58:44.760Z,37.05
2023-03-26T05:01:11.953Z,37.36
2023-03-26T05:03:45.800Z,37.00
2023-03-26T05:06:14.528Z,37.29
2023-03-26T05:08:41.722Z,37.32
2023-03-26T05:11:12.238Z,37.33
2023-03-26T05:13:39.526Z,37.20
2023-03-26T05:16:11.467Z,37.08
2023-03-26T05:18:41.365Z,36.95
2023-03-26T05:21:08.946Z,37.30
2023-03-26T05:23:37.204Z,37.14
2023-03-26T05:26:16.306Z,36.96
2023-03-26T05:28:43.228Z,37.21
2023-03-26T05:31:21.167Z,36.89
2023-03-26T05:33:50.278Z,36.95
2023-03-26T05:36:17.222Z,37.18
2023-03-26T05:38:49.892Z,36.98
2023-03-26T05:41:42.901Z,36.98
2023-03-26T05:44:09.679Z,37.30
2023-03-26T05:46:36.804Z,37.31
2023-03-26T05:49:03.813Z,37.12
2023-03-26T05:51:33.881Z,37.03
2023-03-26T05:54:18.606Z,37.04
2023-03-26T05:57:08.188Z,37.08
2023-03-26T05:59:57.938Z,36.76
2023-03-26T06:02:43.391Z,36.83
2023-03-26T06:05:26.864Z,36.68
2023-03-26T06:08:16.451Z,36.84
2023-03-26T06:10:50.764Z,36.85
2023-03-26T06:13:17.793Z,36.39
2023-03-26T06:15:46.176Z,36.47
2023-03-26T06:18:42.941Z,36.58
2023-03-26T06:21:33.970Z,36.54
2023-03-26T06:24:16.410Z,36.71
2023-03-26T06:26:51.149Z,36.52
2023-03-26T06:29:43.788Z,36.61
2023-03-26T06:32:20.507Z,36.53
2023-03-26T06:34:59.164Z,36.45
2023-03-26T06:37:25.854Z,36.35
2023-03-26T06:39:57.670Z,36.43
2023-03-26T06:43:07.707Z,36.46
2023-03-26T06:45:54.385Z,36.29
2023-03-26T06:48:39.800Z,36.40
2023-03-26T06:51:19.421Z,36.13
2023-03-26T06:54:04.872Z,36.23
2023-03-26T06:56:53.068Z,36.29
2023-03-26T06:59:25.855Z,36.08
2023-03-26T07:02:11.677Z,36.36
2023-03-26T07:05:16.989Z,36.16
2023-03-26T07:08:03.062Z,35.91
2023-03-26T07:10:48.460Z,35.83
2023-03-26T07:13:39.910Z,36.21
2023-03-26T07:16:41.929Z,36.03
2023-03-26T07:19:33.235Z,36.10
2023-03-26T07:22:01.663Z,36.14
2023-03-26T07:24:48.100Z,36.19
2023-03-26T07:28:21.999Z,36.19
2023-03-26T07:31:42.612Z,36.24
2023-03-26T07:34:45.308Z,36.17
2023-03-26T07:37:35.814Z,36.17
2023-03-26T07:40:45.789Z,36.04
2023-03-26T07:43:41.358Z,36.02
2023-03-26T07:46:12.437Z,36.38
2023-03-26T07:49:12.644Z,36.36
2023-03-26T07:51:52.522Z,36.67
2023-03-26T07:54:52.242Z,37.04
2023-03-26T07:57:58.838Z,37.23
2023-03-26T08:00:58.717Z,37.61
2023-03-26T08:03:42.240Z,37.87
2023-03-26T08:06:39.581Z,37.90
2023-03-26T08:09:41.892Z,38.02
2023-03-26T08:12:57.451Z,38.17
2023-03-26T08:15:41.896Z,38.15
2023-03-26T08:18:20.509Z,38.37
2023-03-26T08:20:54.341Z,38.05
2023-03-26T08:23:50.463Z,38.29
2023-03-26T08:26:36.867Z,38.08
2023-03-26T08:29:16.132Z,38.16
2023-03-26T08:31:44.885Z,38.00
2023-03-26T08:34:13.416Z,38.15
2023-03-26T08:36:40.402Z,38.20
2023-03-26T08:39:08.109Z,38.12
2023-03-26T08:42:02.941Z,38.28
2023-03-26T08:45:12.006Z,38.66
2023-03-26T08:47:48.068Z,38.33
2023-03-26T08:50:33.790Z,38.04
2023-03-26T08:53:31.336Z,38.05
2023-03-26T08:56:34.920Z,38.16
2023-03-26T08:59:43.067Z,37.86
2023-03-26T09:02:38.472Z,38.11
2023-03-26T09:05:44.768Z,37.92
2023-03-26T09:08:17.106Z,37.70
2023-03-26T09:11:09.234Z,37.73
2023-03-26T09:14:08.626Z,37.82
2023-03-26T09:17:04.382Z,37.49
2023-03-26T09:19:55.835Z,37.63
2023-03-26T09:22:44.017Z,37.46
2023-03-26T09:25:18.384Z,37.41
2023-03-26T09:28:14.122Z,37.39
2023-03-26T09:31:05.549Z,36.61
2023-03-26T09:33:56.333Z,36.58
2023-03-26T09:36:40.986Z,36.17
2023-03-26T09:39:26.638Z,35.85
2023-03-26T09:42:09.034Z,35.67
2023-03-26T09:45:13.422Z,35.55
2023-03-26T09:48:16.456Z,35.80
2023-03-26T09:50:52.471Z,35.89
2023-03-26T09:53:56.355Z,35.59
2023-03-26T09:56:32.332Z,35.34
2023-03-26T09:59:37.729Z,35.52
2023-03-26T10:02:20.648Z,35.41
2023-03-26T10:05:21.560Z,35.39
2023-03-26T10:08:16.568Z,35.39
2023-03-26T10:10:47.347Z,35.32
2023-03-26T10:13:24.872Z,35.14
2023-03-26T10:16:05.247Z,35.18
2023-03-26T10:18:49.647Z,35.12
2023-03-26T10:21:34.585Z,35.34
2023-03-26T10:24:13.579Z,35.11
2023-03-26T10:27:10.833Z,35.10
2023-03-26T10:30:16.282Z,35.37
2023-03-26T10:32:51.292Z,34.85
2023-03-26T10:35:41.311Z,35.03
2023-03-26T10:38:45.715Z,35.02
2023-03-26T10:41:29.087Z,34.87
2023-03-26T10:44:22.992Z,34.92
2023-03-26T10:47:04.772Z,34.83
2023-03-26T10:49:50.031Z,34.85
2023-03-26T10:52:25.048Z,34.59
2023-03-26T10:55:03.631Z,34.81
2023-03-26T10:57:53.875Z,34.85
2023-03-26T11:00:27.231Z,34.76
2023-03-26T11:03:10.123Z,34.78
2023-03-26T11:06:10.985Z,34.92
2023-03-26T11:08:52.589Z,34.80
2023-03-26T11:11:38.503Z,34.71
2023-03-26T11:14:33.825Z,34.54
2023-03-26T11:17:40.153Z,34.59
2023-03-26T11:20:19.767Z,34.50
2023-03-26T11:23:00.942Z,34.56
2023-03-26T11:25:27.620Z,34.44
2023-03-26T11:28:00.200Z,34.50
2023-03-26T11:30:45.954Z,34.80
2023-03-26T11:33:32.701Z,35.17
2023-03-26T11:36:07.296Z,35.10
2023-03-26T11:38:41.928Z,35.23
2023-03-26T11:41:23.614Z,35.20
2023-03-26T11:44:25.994Z,35.38
2023-03-26T11:47:01.612Z,35.83
2023-03-26T11:49:29.479Z,36.39
2023-03-26T11:51:56.524Z,36.95
2023-03-26T11:54:23.234Z,37.73
2023-03-26T11:57:04.710Z,37.94
2023-03-26T12:00:10.778Z,38.13
2023-03-26T12:02:41.580Z,38.66
2023-03-26T12:05:19.932Z,39.26
2023-03-26T12:07:52.316Z,39.26
2023-03-26T12:10:26.786Z,39.44
2023-03-26T12:12:56.678Z,39.45
2023-03-26T12:17:47.258Z,39.43
2023-03-26T12:20:24.854Z,39.17
2023-03-26T12:22:59.574Z,39.38
2023-03-26T12:25:38.850Z,38.95
2023-03-26T12:28:18.546Z,38.97
2023-03-26T12:31:00.952Z,38.99
2023-03-26T12:33:34.205Z,38.97
2023-03-26T12:36:26.451Z,38.93
2023-03-26T12:40:06.028Z,39.02
2023-03-26T12:43:51.506Z,38.74
2023-03-26T12:44:54.605Z,38.99
2023-03-26T12:48:00.848Z,38.79
2023-03-26T12:50:34.448Z,38.75
2023-03-26T12:53:17.917Z,38.70
2023-03-26T12:56:23.959Z,38.96
2023-03-26T12:59:00.289Z,39.17
2023-03-26T13:01:40.835Z,38.99
2023-03-26T13:04:17.216Z,38.88
2023-03-26T13:06:59.745Z,38.99
2023-03-26T13:09:32.816Z,39.09
2023-03-26T13:12:43.170Z,38.81
2023-03-26T13:15:22.032Z,39.11
2023-03-26T13:17:51.726Z,38.85
2023-03-26T13:20:21.521Z,38.93
2023-03-26T13:23:01.868Z,38.92
2023-03-26T13:25:34.811Z,39.06
2023-03-26T13:28:19.816Z,38.90
2023-03-26T13:31:05.390Z,39.18
2023-03-26T13:33:46.350Z,39.38
2023-03-26T13:36:31.158Z,39.10
2023-03-26T13:39:08.154Z,39.14
2023-03-26T13:41:41.146Z,39.09
2023-03-26T13:44:19.970Z,38.50
2023-03-26T13:46:55.169Z,38.46
2023-03-26T13:49:43.259Z,38.29
2023-03-26T13:52:22.950Z,38.31
2023-03-26T13:55:12.340Z,38.25
2023-03-26T13:57:43.374Z,38.35
2023-03-26T14:00:18.348Z,39.05
2023-03-26T14:03:04.022Z,40.52
2023-03-26T14:05:42.262Z,41.38
2023-03-26T14:08:25.344Z,41.89
2023-03-26T14:11:01.564Z,42.19
2023-03-26T14:14:06.155Z,42.06
2023-03-26T14:16:42.321Z,42.08
2023-03-26T14:19:30.888Z,41.83
2023-03-26T14:22:18.560Z,41.46
2023-03-26T14:25:00.064Z,41.45
2023-03-26T14:27:44.978Z,40.92
2023-03-26T14:30:24.405Z,40.95
2023-03-26T14:33:27.171Z,40.19
2023-03-26T14:35:57.553Z,38.96
2023-03-26T14:38:40.233Z,38.67
2023-03-26T14:41:26.987Z,38.84
2023-03-26T14:44:12.803Z,37.99
2023-03-26T14:47:00.976Z,37.92
2023-03-26T14:49:53.615Z,37.61
2023-03-26T14:52:39.413Z,36.82
2023-03-26T14:55:17.069Z,35.99
2023-03-26T14:57:52.726Z,35.44
2023-03-26T15:01:04.145Z,34.92
2023-03-26T15:03:56.448Z,34.85
2023-03-26T15:06:41.901Z,34.42
2023-03-26T15:09:30.885Z,33.66
2023-03-26T15:12:15.058Z,33.75
2023-03-26T15:14:51.077Z,33.22
2023-03-26T15:17:59.530Z,33.17
2023-03-26T15:20:47.854Z,32.79
2023-03-26T15:23:29.412Z,32.62
2023-03-26T15:25:58.785Z,32.53
2023-03-26T15:28:50.353Z,32.39
2023-03-26T15:31:18.526Z,32.27
2023-03-26T15:33:51.167Z,32.61
2023-03-26T15:36:28.139Z,32.46
2023-03-26T15:39:06.505Z,32.22
2023-03-26T15:41:50.951Z,32.01
2023-03-26T15:44:31.680Z,31.79
2023-03-26T15:47:13.055Z,31.85
2023-03-26T15:49:49.862Z,31.72
2023-03-26T15:52:30.118Z,31.84
2023-03-26T15:55:01.761Z,31.68
2023-03-26T15:57:39.095Z,31.45
2023-03-26T16:00:25.879Z,31.31
2023-03-26T16:03:20.386Z,31.15
2023-03-26T16:06:09.699Z,31.32
2023-03-26T16:08:53.102Z,31.06
2023-03-26T16:11:44.971Z,30.96
2023-03-26T16:14:23.786Z,31.21
2023-03-26T16:16:59.248Z,30.95
2023-03-26T16:19:36.619Z,31.15
2023-03-26T16:22:07.754Z,31.16
2023-03-26T16:24:37.789Z,31.18
2023-03-26T16:27:26.212Z,31.04
2023-03-26T16:30:15.755Z,31.18
2023-03-26T16:32:55.289Z,31.19
2023-03-26T16:35:35.875Z,31.23
2023-03-26T16:38:14.766Z,31.35
2023-03-26T16:41:01.858Z,31.32
2023-03-26T16:43:43.897Z,31.17
2023-03-26T16:46:11.144Z,31.51
2023-03-26T16:48:47.123Z,31.09
2023-03-26T16:51:32.485Z,31.20
2023-03-26T16:54:26.999Z,31.07
2023-03-26T16:57:28.752Z,31.67
2023-03-26T17:00:05.932Z,31.73
2023-03-26T17:02:57.636Z,31.80
2023-03-26T17:05:38.022Z,32.21
2023-03-26T17:08:17.443Z,32.11
2023-03-26T17:11:08.447Z,32.41
2023-03-26T17:13:41.215Z,32.38
2023-03-26T17:16:13.704Z,32.55
2023-03-26T17:18:58.171Z,33.04
2023-03-26T17:21:45.534Z,33.06
2023-03-26T17:24:26.170Z,33.04
2023-03-26T17:27:29.910Z,33.45
2023-03-26T17:30:03.811Z,33.38
2023-03-26T17:32:58.613Z,33.58
2023-03-26T17:35:41.766Z,33.61
2023-03-26T17:38:17.801Z,33.50
2023-03-26T17:40:47.634Z,33.38
2023-03-26T17:43:47.742Z,33.91
2023-03-26T17:46:34.600Z,33.84
2023-03-26T17:49:11.359Z,33.79
2023-03-26T17:52:17.074Z,34.14
2023-03-26T17:54:48.033Z,33.96
2023-03-26T17:57:40.211Z,33.94
2023-03-26T18:00:16.764Z,33.95
2023-03-26T18:02:51.265Z,33.90
2023-03-26T18:05:20.719Z,34.25
2023-03-26T18:08:24.587Z,34.04
2023-03-26T18:11:26.216Z,34.19
2023-03-26T18:13:58.800Z,34.27
2023-03-26T18:16:47.524Z,34.16
2023-03-26T18:19:19.509Z,34.22
2023-03-26T18:21:58.034Z,33.99
2023-03-26T18:24:40.527Z,34.06
2023-03-26T18:27:12.623Z,34.30
2023-03-26T18:30:01.568Z,34.17
2023-03-26T18:32:34.055Z,34.31
2023-03-26T18:35:17.060Z,34.27
2023-03-26T18:37:53.771Z,34.25
2023-03-26T18:40:23.548Z,34.21
2023-03-26T18:42:59.181Z,34.43
2023-03-26T18:45:39.837Z,34.50
2023-03-26T18:48:26.135Z,34.56
2023-03-26T18:51:06.022Z,34.22
2023-03-26T18:53:45.824Z,34.53
2023-03-26T18:56:29.193Z,34.42
2023-03-26T18:59:02.555Z,34.22
2023-03-26T19:01:33.236Z,34.49
2023-03-26T19:04:06.170Z,34.59
2023-03-26T19:06:38.375Z,34.40
2023-03-26T19:09:16.384Z,34.48
2023-03-26T19:12:00.665Z,34.32
2023-03-26T19:14:28.660Z,34.63
2023-03-26T19:17:01.427Z,34.21
2023-03-26T19:19:39.508Z,34.25
2023-03-26T19:22:08.092Z,34.37
2023-03-26T19:24:36.311Z,34.28
2023-03-26T19:27:04.751Z,34.60
2023-03-26T19:29:35.008Z,34.68
2023-03-26T19:32:20.276Z,34.38
2023-03-26T19:34:51.860Z,34.40
2023-03-26T19:37:22.802Z,34.66
2023-03-26T19:40:17.175Z,34.46
2023-03-26T19:42:50.817Z,34.75
2023-03-26T19:45:35.737Z,34.52
2023-03-26T19:48:15.026Z,34.68
2023-03-26T19:51:01.329Z,34.71
2023-03-26T19:53:34.591Z,34.46
2023-03-26T19:56:20.904Z,34.34
2023-03-26T19:58:50.001Z,34.36
2023-03-26T20:01:22.818Z,34.73
2023-03-26T20:03:59.411Z,34.48
2023-03-26T20:06:42.605Z,34.75
2023-03-26T20:09:12.990Z,34.40
2023-03-26T20:11:46.478Z,34.58
2023-03-26T20:14:19.366Z,34.48
2023-03-26T20:16:51.427Z,34.45
2023-03-26T20:19:27.021Z,34.60
2023-03-26T20:21:54.617Z,34.48
2023-03-26T20:24:21.632Z,34.51
2023-03-26T20:26:48.590Z,34.75
2023-03-26T20:29:16.124Z,34.70
2023-03-26T20:31:43.529Z,34.54
2023-03-26T20:34:17.018Z,34.63
2023-03-26T20:36:48.218Z,34.64
2023-03-26T20:39:15.582Z,34.55
2023-03-26T20:41:47.627Z,34.89
2023-03-26T20:44:17.378Z,34.81
2023-03-26T20:46:55.970Z,34.89
2023-03-26T20:49:24.809Z,34.88
2023-03-26T20:51:51.441Z,34.56
2023-03-26T20:54:24.337Z,34.86
2023-03-26T20:56:52.382Z,34.59
2023-03-26T20:59:22.168Z,34.74
2023-03-26T21:01:50.171Z,34.59
2023-03-26T21:04:17.750Z,34.83
2023-03-26T21:06:44.327Z,34.81
2023-03-26T21:09:23.437Z,34.59
2023-03-26T21:11:55.300Z,34.58
2023-03-26T21:14:27.666Z,35.03
2023-03-26T21:16:54.866Z,34.94
2023-03-26T21:19:21.821Z,34.77
2023-03-26T21:21:59.888Z,34.63
2023-03-26T21:24:40.909Z,35.03
2023-03-26T21:27:19.708Z,34.71
2023-03-26T21:29:46.712Z,34.70
2023-03-26T21:32:14.724Z,35.13
2023-03-26T21:34:55.540Z,35.23
2023-03-26T21:37:25.648Z,35.76
2023-03-26T21:39:52.565Z,35.64
2023-03-26T21:42:19.676Z,36.04
2023-03-26T21:44:46.764Z,36.02
2023-03-26T21:47:14.074Z,35.97
2023-03-26T21:49:41.196Z,36.13
2023-03-26T21:52:14.188Z,36.21
2023-03-26T21:54:43.182Z,36.18
2023-03-26T21:57:29.065Z,36.18
2023-03-26T22:00:11.521Z,36.26
2023-03-26T22:03:00.768Z,36.00
2023-03-26T22:05:45.448Z,36.04
2023-03-26T22:08:24.260Z,36.14
2023-03-26T22:10:51.224Z,36.28
2023-03-26T22:13:19.925Z,35.95
2023-03-26T22:15:46.743Z,36.02
2023-03-26T22:18:14.248Z,36.22
2023-03-26T22:20:43.223Z,36.63
2023-03-26T22:23:10.773Z,36.75
2023-03-26T22:25:38.628Z,36.88
2023-03-26T22:28:05.649Z,36.48
2023-03-26T22:30:33.413Z,36.56
2023-03-26T22:33:00.075Z,36.55
2023-03-26T22:35:26.706Z,36.24
2023-03-26T22:38:00.491Z,36.72
2023-03-26T22:40:28.276Z,36.59
2023-03-26T22:42:55.141Z,36.71
2023-03-26T22:45:22.848Z,36.59
2023-03-26T22:47:49.965Z,36.52
2023-03-26T22:50:16.671Z,36.58
2023-03-26T22:52:43.189Z,36.46
2023-03-26T22:55:11.528Z,36.43
2023-03-26T22:57:39.551Z,36.55
2023-03-26T23:00:16.145Z,36.48
2023-03-26T23:02:47.188Z,36.62
2023-03-26T23:05:17.371Z,36.66
2023-03-26T23:07:45.905Z,36.64
2023-03-26T23:10:13.027Z,36.58
2023-03-26T23:12:43.349Z,36.72
2023-03-26T23:15:10.637Z,36.37
2023-03-26T23:17:37.809Z,36.58
2023-03-26T23:20:14.996Z,36.29
2023-03-26T23:22:42.831Z,36.06
2023-03-26T23:25:11.145Z,36.42
2023-03-26T23:27:39.596Z,36.37
2023-03-26T23:30:06.719Z,36.05
2023-03-26T23:32:37.637Z,36.24
2023-03-26T23:35:04.954Z,36.21
2023-03-26T23:37:34.791Z,35.98
2023-03-26T23:40:01.470Z,36.27
2023-03-26T23:42:29.761Z,35.95
2023-03-26T23:44:57.505Z,36.19
2023-03-26T23:47:24.452Z,36.02
2023-03-26T23:49:51.195Z,35.77
2023-03-26T23:52:18.301Z,35.87
2023-03-26T23:54:45.638Z,36.08
2023-03-26T23:57:12.798Z,35.78
2023-03-26T23:59:41.418Z,36.11
